sensor_id;sensor_type;location;lat;lon;timestamp;temperature;humidity
20985;DHT22;10651;47.552;7.606;2022-08-20T00:01:44;18.30;99.90
20985;DHT22;10651;47.552;7.606;2022-08-20T00:04:11;18.20;99.90
20985;DHT22;10651;47.552;7.606;2022-08-20T00:06:36;18.20;99.90
20985;DHT22;10651;47.552;7.606;2022-08-20T00:11:28;18.10;99.90
20985;DHT22;10651;47.552;7.606;2022-08-20T00:13:57;18.10;99.90
20985;DHT22;10651;47.552;7.606;2022-08-20T00:16:26;18.10;99.90
20985;DHT22;10651;47.552;7.606;2022-08-20T00:18:52;18.10;99.90
20985;DHT22;10651;47.552;7.606;2022-08-20T00:21:19;18.10;99.90
20985;DHT22;10651;47.552;7.606;2022-08-20T00:23:47;18.00;99.90
20985;DHT22;10651;47.552;7.606;2022-08-20T00:26:14;18.00;99.90
20985;DHT22;10651;47.552;7.606;2022-08-20T00:28:40;18.00;99.90
20985;DHT22;10651;47.552;7.606;2022-08-20T00:31:08;18.00;99.90
20985;DHT22;10651;47.552;7.606;2022-08-20T00:33:35;18.00;99.90
20985;DHT22;10651;47.552;7.606;2022-08-20T00:36:02;18.10;99.90
20985;DHT22;10651;47.552;7.606;2022-08-20T00:38:32;18.00;99.90
20985;DHT22;10651;47.552;7.606;2022-08-20T00:40:59;18.00;99.90
20985;DHT22;10651;47.552;7.606;2022-08-20T00:43:38;18.00;99.90
20985;DHT22;10651;47.552;7.606;2022-08-20T00:46:13;18.00;99.90
20985;DHT22;10651;47.552;7.606;2022-08-20T00:48:41;18.10;99.90
20985;DHT22;10651;47.552;7.606;2022-08-20T00:53:46;18.10;99.90
20985;DHT22;10651;47.552;7.606;2022-08-20T00:56:12;18.10;99.90
20985;DHT22;10651;47.552;7.606;2022-08-20T00:58:39;18.10;99.90
20985;DHT22;10651;47.552;7.606;2022-08-20T01:01:07;18.10;99.90
20985;DHT22;10651;47.552;7.606;2022-08-20T01:03:33;18.10;99.90
20985;DHT22;10651;47.552;7.606;2022-08-20T01:05:59;18.10;99.90
20985;DHT22;10651;47.552;7.606;2022-08-20T01:08:25;18.10;99.90
20985;DHT22;10651;47.552;7.606;2022-08-20T01:10:53;18.00;99.90
20985;DHT22;10651;47.552;7.606;2022-08-20T01:13:30;18.00;99.90
20985;DHT22;10651;47.552;7.606;2022-08-20T01:15:57;18.00;99.90
20985;DHT22;10651;47.552;7.606;2022-08-20T01:18:25;18.10;99.90
20985;DHT22;10651;47.552;7.606;2022-08-20T01:20:58;18.10;99.90
20985;DHT22;10651;47.552;7.606;2022-08-20T01:26:09;18.00;99.90
20985;DHT22;10651;47.552;7.606;2022-08-20T01:31:06;18.00;99.90
20985;DHT22;10651;47.552;7.606;2022-08-20T01:33:32;18.00;99.90
20985;DHT22;10651;47.552;7.606;2022-08-20T01:35:58;18.00;99.90
20985;DHT22;10651;47.552;7.606;2022-08-20T01:38:26;18.10;99.90
20985;DHT22;10651;47.552;7.606;2022-08-20T01:43:43;18.00;99.90
20985;DHT22;10651;47.552;7.606;2022-08-20T01:46:09;18.10;99.90
20985;DHT22;10651;47.552;7.606;2022-08-20T01:48:37;18.10;99.90
20985;DHT22;10651;47.552;7.606;2022-08-20T01:51:08;18.10;99.90
20985;DHT22;10651;47.552;7.606;2022-08-20T01:53:38;18.00;99.90
20985;DHT22;10651;47.552;7.606;2022-08-20T01:56:06;18.00;99.90
20985;DHT22;10651;47.552;7.606;2022-08-20T01:58:34;18.10;99.90
20985;DHT22;10651;47.552;7.606;2022-08-20T02:00:59;18.10;99.90
20985;DHT22;10651;47.552;7.606;2022-08-20T02:03:26;18.00;99.90
20985;DHT22;10651;47.552;7.606;2022-08-20T02:05:51;18.10;99.90
20985;DHT22;10651;47.552;7.606;2022-08-20T02:08:19;18.10;99.90
20985;DHT22;10651;47.552;7.606;2022-08-20T02:10:44;18.20;99.90
20985;DHT22;10651;47.552;7.606;2022-08-20T02:13:11;18.10;99.90
20985;DHT22;10651;47.552;7.606;2022-08-20T02:15:38;18.10;99.90
20985;DHT22;10651;47.552;7.606;2022-08-20T02:18:10;18.10;99.90
20985;DHT22;10651;47.552;7.606;2022-08-20T02:20:38;18.10;99.90
20985;DHT22;10651;47.552;7.606;2022-08-20T02:23:05;18.00;99.90
20985;DHT22;10651;47.552;7.606;2022-08-20T02:25:34;18.00;99.90
20985;DHT22;10651;47.552;7.606;2022-08-20T02:28:04;18.10;99.90
20985;DHT22;10651;47.552;7.606;2022-08-20T02:30:34;17.90;99.90
20985;DHT22;10651;47.552;7.606;2022-08-20T02:33:02;18.10;99.90
20985;DHT22;10651;47.552;7.606;2022-08-20T02:35:28;18.10;99.90
20985;DHT22;10651;47.552;7.606;2022-08-20T02:37:55;18.10;99.90
20985;DHT22;10651;47.552;7.606;2022-08-20T02:40:22;18.10;99.90
20985;DHT22;10651;47.552;7.606;2022-08-20T02:42:51;18.00;99.90
20985;DHT22;10651;47.552;7.606;2022-08-20T02:45:17;18.10;99.90
20985;DHT22;10651;47.552;7.606;2022-08-20T02:47:44;18.10;99.90
20985;DHT22;10651;47.552;7.606;2022-08-20T02:50:12;18.10;99.90
20985;DHT22;10651;47.552;7.606;2022-08-20T02:52:39;18.10;99.90
20985;DHT22;10651;47.552;7.606;2022-08-20T02:55:05;18.10;99.90
20985;DHT22;10651;47.552;7.606;2022-08-20T02:57:31;18.10;99.90
20985;DHT22;10651;47.552;7.606;2022-08-20T02:59:57;18.00;99.90
20985;DHT22;10651;47.552;7.606;2022-08-20T03:02:23;18.00;99.90
20985;DHT22;10651;47.552;7.606;2022-08-20T03:04:49;18.10;99.90
20985;DHT22;10651;47.552;7.606;2022-08-20T03:07:15;18.10;99.90
20985;DHT22;10651;47.552;7.606;2022-08-20T03:09:41;18.10;99.90
20985;DHT22;10651;47.552;7.606;2022-08-20T03:12:07;18.00;99.90
20985;DHT22;10651;47.552;7.606;2022-08-20T03:14:33;18.10;99.90
20985;DHT22;10651;47.552;7.606;2022-08-20T03:16:59;18.10;99.90
20985;DHT22;10651;47.552;7.606;2022-08-20T03:19:26;18.10;99.90
20985;DHT22;10651;47.552;7.606;2022-08-20T03:21:52;18.10;99.90
20985;DHT22;10651;47.552;7.606;2022-08-20T03:24:17;18.00;99.90
20985;DHT22;10651;47.552;7.606;2022-08-20T03:26:43;18.10;99.90
20985;DHT22;10651;47.552;7.606;2022-08-20T03:29:10;18.10;99.90
20985;DHT22;10651;47.552;7.606;2022-08-20T03:31:36;18.20;99.90
20985;DHT22;10651;47.552;7.606;2022-08-20T03:34:01;18.20;99.90
20985;DHT22;10651;47.552;7.606;2022-08-20T03:36:28;18.20;99.90
20985;DHT22;10651;47.552;7.606;2022-08-20T03:38:59;18.30;99.90
20985;DHT22;10651;47.552;7.606;2022-08-20T03:41:25;18.20;99.90
20985;DHT22;10651;47.552;7.606;2022-08-20T03:43:51;18.20;99.90
20985;DHT22;10651;47.552;7.606;2022-08-20T03:46:17;18.20;99.90
20985;DHT22;10651;47.552;7.606;2022-08-20T03:48:42;18.20;99.90
20985;DHT22;10651;47.552;7.606;2022-08-20T03:51:08;18.20;99.90
20985;DHT22;10651;47.552;7.606;2022-08-20T03:53:34;18.10;99.90
20985;DHT22;10651;47.552;7.606;2022-08-20T03:56:03;18.10;99.90
20985;DHT22;10651;47.552;7.606;2022-08-20T03:58:31;18.10;99.90
20985;DHT22;10651;47.552;7.606;2022-08-20T04:00:57;18.10;99.90
20985;DHT22;10651;47.552;7.606;2022-08-20T04:03:23;18.10;99.90
20985;DHT22;10651;47.552;7.606;2022-08-20T04:05:49;18.00;99.90
20985;DHT22;10651;47.552;7.606;2022-08-20T04:08:19;18.00;99.90
20985;DHT22;10651;47.552;7.606;2022-08-20T04:10:47;18.10;99.90
20985;DHT22;10651;47.552;7.606;2022-08-20T04:13:18;18.10;99.90
20985;DHT22;10651;47.552;7.606;2022-08-20T04:15:44;18.00;99.90
20985;DHT22;10651;47.552;7.606;2022-08-20T04:18:11;18.10;99.90
20985;DHT22;10651;47.552;7.606;2022-08-20T04:20:40;18.00;99.90
20985;DHT22;10651;47.552;7.606;2022-08-20T04:23:06;18.10;99.90
20985;DHT22;10651;47.552;7.606;2022-08-20T04:25:34;18.00;99.90
20985;DHT22;10651;47.552;7.606;2022-08-20T04:28:03;18.00;99.90
20985;DHT22;10651;47.552;7.606;2022-08-20T04:30:30;18.00;99.90
20985;DHT22;10651;47.552;7.606;2022-08-20T04:32:57;18.00;99.90
20985;DHT22;10651;47.552;7.606;2022-08-20T04:35:24;18.10;99.90
20985;DHT22;10651;47.552;7.606;2022-08-20T04:38:06;18.10;99.90
20985;DHT22;10651;47.552;7.606;2022-08-20T04:40:34;18.10;99.90
20985;DHT22;10651;47.552;7.606;2022-08-20T04:43:23;18.10;99.90
20985;DHT22;10651;47.552;7.606;2022-08-20T04:45:49;18.20;99.90
20985;DHT22;10651;47.552;7.606;2022-08-20T04:48:17;18.20;99.90
20985;DHT22;10651;47.552;7.606;2022-08-20T04:50:44;18.30;99.90
20985;DHT22;10651;47.552;7.606;2022-08-20T04:53:13;18.40;99.90
20985;DHT22;10651;47.552;7.606;2022-08-20T04:55:41;18.50;99.90
20985;DHT22;10651;47.552;7.606;2022-08-20T04:58:28;18.60;99.90
20985;DHT22;10651;47.552;7.606;2022-08-20T05:00:57;18.60;99.90
20985;DHT22;10651;47.552;7.606;2022-08-20T05:03:24;18.70;99.90
20985;DHT22;10651;47.552;7.606;2022-08-20T05:05:50;18.60;99.90
20985;DHT22;10651;47.552;7.606;2022-08-20T05:08:18;18.70;99.90
20985;DHT22;10651;47.552;7.606;2022-08-20T05:10:44;18.60;99.90
20985;DHT22;10651;47.552;7.606;2022-08-20T05:13:10;18.60;99.90
20985;DHT22;10651;47.552;7.606;2022-08-20T05:15:37;18.50;99.90
20985;DHT22;10651;47.552;7.606;2022-08-20T05:18:04;18.50;99.90
20985;DHT22;10651;47.552;7.606;2022-08-20T05:20:36;18.40;99.90
20985;DHT22;10651;47.552;7.606;2022-08-20T05:23:05;18.50;99.90
20985;DHT22;10651;47.552;7.606;2022-08-20T05:25:31;18.50;99.90
20985;DHT22;10651;47.552;7.606;2022-08-20T05:27:59;18.50;99.90
20985;DHT22;10651;47.552;7.606;2022-08-20T05:30:27;18.50;99.90
20985;DHT22;10651;47.552;7.606;2022-08-20T05:32:58;18.40;99.90
20985;DHT22;10651;47.552;7.606;2022-08-20T05:35:24;18.50;99.90
20985;DHT22;10651;47.552;7.606;2022-08-20T05:37:52;18.50;99.90
20985;DHT22;10651;47.552;7.606;2022-08-20T05:40:19;18.50;99.90
20985;DHT22;10651;47.552;7.606;2022-08-20T05:42:47;18.50;99.90
20985;DHT22;10651;47.552;7.606;2022-08-20T05:45:18;18.50;99.90
20985;DHT22;10651;47.552;7.606;2022-08-20T05:47:44;18.50;99.90
20985;DHT22;10651;47.552;7.606;2022-08-20T05:52:38;18.50;99.90
20985;DHT22;10651;47.552;7.606;2022-08-20T05:55:09;18.50;99.90
20985;DHT22;10651;47.552;7.606;2022-08-20T05:57:39;18.60;99.90
20985;DHT22;10651;47.552;7.606;2022-08-20T06:00:11;18.60;99.90
20985;DHT22;10651;47.552;7.606;2022-08-20T06:02:38;18.60;99.90
20985;DHT22;10651;47.552;7.606;2022-08-20T06:05:23;18.70;99.90
20985;DHT22;10651;47.552;7.606;2022-08-20T06:07:49;18.70;99.90
20985;DHT22;10651;47.552;7.606;2022-08-20T06:10:16;18.70;99.90
20985;DHT22;10651;47.552;7.606;2022-08-20T06:12:42;18.60;99.90
20985;DHT22;10651;47.552;7.606;2022-08-20T06:15:11;18.60;99.90
20985;DHT22;10651;47.552;7.606;2022-08-20T06:17:37;18.70;99.90
20985;DHT22;10651;47.552;7.606;2022-08-20T06:20:06;18.70;99.90
20985;DHT22;10651;47.552;7.606;2022-08-20T06:22:33;18.70;99.90
20985;DHT22;10651;47.552;7.606;2022-08-20T06:24:59;18.70;99.90
20985;DHT22;10651;47.552;7.606;2022-08-20T06:27:25;18.60;99.90
20985;DHT22;10651;47.552;7.606;2022-08-20T06:29:51;18.60;99.90
20985;DHT22;10651;47.552;7.606;2022-08-20T06:32:18;18.50;99.90
20985;DHT22;10651;47.552;7.606;2022-08-20T06:34:45;18.50;99.90
20985;DHT22;10651;47.552;7.606;2022-08-20T06:37:15;18.60;99.90
20985;DHT22;10651;47.552;7.606;2022-08-20T06:39:41;18.70;99.90
20985;DHT22;10651;47.552;7.606;2022-08-20T06:42:07;18.60;99.90
20985;DHT22;10651;47.552;7.606;2022-08-20T06:44:32;18.70;99.90
20985;DHT22;10651;47.552;7.606;2022-08-20T06:47:02;18.70;99.90
20985;DHT22;10651;47.552;7.606;2022-08-20T06:49:29;18.70;99.90
20985;DHT22;10651;47.552;7.606;2022-08-20T06:51:55;18.60;99.90
20985;DHT22;10651;47.552;7.606;2022-08-20T06:54:20;18.70;99.90
20985;DHT22;10651;47.552;7.606;2022-08-20T06:56:46;18.80;99.90
20985;DHT22;10651;47.552;7.606;2022-08-20T06:59:12;18.80;99.90
20985;DHT22;10651;47.552;7.606;2022-08-20T07:01:37;18.80;99.90
20985;DHT22;10651;47.552;7.606;2022-08-20T07:04:03;18.80;99.90
20985;DHT22;10651;47.552;7.606;2022-08-20T07:06:30;18.90;99.90
20985;DHT22;10651;47.552;7.606;2022-08-20T07:08:56;18.90;99.90
20985;DHT22;10651;47.552;7.606;2022-08-20T07:11:21;18.90;99.90
20985;DHT22;10651;47.552;7.606;2022-08-20T07:13:47;19.00;99.90
20985;DHT22;10651;47.552;7.606;2022-08-20T07:16:14;19.00;99.90
20985;DHT22;10651;47.552;7.606;2022-08-20T07:18:40;19.10;99.90
20985;DHT22;10651;47.552;7.606;2022-08-20T07:21:05;19.10;99.90
20985;DHT22;10651;47.552;7.606;2022-08-20T07:23:31;19.10;99.90
20985;DHT22;10651;47.552;7.606;2022-08-20T07:25:57;19.10;99.90
20985;DHT22;10651;47.552;7.606;2022-08-20T07:28:25;19.20;99.90
20985;DHT22;10651;47.552;7.606;2022-08-20T07:30:56;19.20;99.90
20985;DHT22;10651;47.552;7.606;2022-08-20T07:33:40;19.30;99.90
20985;DHT22;10651;47.552;7.606;2022-08-20T07:36:06;19.30;99.90
20985;DHT22;10651;47.552;7.606;2022-08-20T07:38:33;19.30;99.90
20985;DHT22;10651;47.552;7.606;2022-08-20T07:41:01;19.30;99.90
20985;DHT22;10651;47.552;7.606;2022-08-20T07:43:27;19.30;99.90
20985;DHT22;10651;47.552;7.606;2022-08-20T07:45:55;19.40;99.90
20985;DHT22;10651;47.552;7.606;2022-08-20T07:48:22;19.40;99.90
20985;DHT22;10651;47.552;7.606;2022-08-20T07:50:55;19.40;99.90
20985;DHT22;10651;47.552;7.606;2022-08-20T07:53:21;19.50;99.90
20985;DHT22;10651;47.552;7.606;2022-08-20T07:55:46;19.30;99.90
20985;DHT22;10651;47.552;7.606;2022-08-20T07:58:16;19.40;99.90
20985;DHT22;10651;47.552;7.606;2022-08-20T08:00:42;19.50;99.90
20985;DHT22;10651;47.552;7.606;2022-08-20T08:03:08;19.60;99.90
20985;DHT22;10651;47.552;7.606;2022-08-20T08:05:37;19.70;99.90
20985;DHT22;10651;47.552;7.606;2022-08-20T08:08:06;19.90;99.90
20985;DHT22;10651;47.552;7.606;2022-08-20T08:10:33;20.20;99.90
20985;DHT22;10651;47.552;7.606;2022-08-20T08:13:04;20.30;99.90
20985;DHT22;10651;47.552;7.606;2022-08-20T08:15:33;20.50;99.90
20985;DHT22;10651;47.552;7.606;2022-08-20T08:18:15;20.60;99.90
20985;DHT22;10651;47.552;7.606;2022-08-20T08:20:44;20.70;99.90
20985;DHT22;10651;47.552;7.606;2022-08-20T08:23:14;20.90;99.90
20985;DHT22;10651;47.552;7.606;2022-08-20T08:25:43;20.90;99.90
20985;DHT22;10651;47.552;7.606;2022-08-20T08:28:11;20.90;99.90
20985;DHT22;10651;47.552;7.606;2022-08-20T08:30:41;20.80;99.90
20985;DHT22;10651;47.552;7.606;2022-08-20T08:33:20;21.00;99.90
20985;DHT22;10651;47.552;7.606;2022-08-20T08:35:54;21.10;99.90
20985;DHT22;10651;47.552;7.606;2022-08-20T08:38:20;21.60;99.90
20985;DHT22;10651;47.552;7.606;2022-08-20T08:40:48;21.80;99.90
20985;DHT22;10651;47.552;7.606;2022-08-20T08:43:16;22.00;99.90
20985;DHT22;10651;47.552;7.606;2022-08-20T08:46:09;22.30;99.90
20985;DHT22;10651;47.552;7.606;2022-08-20T08:49:29;22.10;99.90
20985;DHT22;10651;47.552;7.606;2022-08-20T08:55:30;22.10;99.90
20985;DHT22;10651;47.552;7.606;2022-08-20T08:58:21;21.80;99.90
20985;DHT22;10651;47.552;7.606;2022-08-20T09:01:19;21.80;99.90
20985;DHT22;10651;47.552;7.606;2022-08-20T09:03:49;21.50;99.90
20985;DHT22;10651;47.552;7.606;2022-08-20T09:06:18;21.40;99.90
20985;DHT22;10651;47.552;7.606;2022-08-20T09:08:54;21.50;99.90
20985;DHT22;10651;47.552;7.606;2022-08-20T09:11:21;21.60;99.90
20985;DHT22;10651;47.552;7.606;2022-08-20T09:13:48;21.70;99.90
20985;DHT22;10651;47.552;7.606;2022-08-20T09:16:14;21.90;99.90
20985;DHT22;10651;47.552;7.606;2022-08-20T09:18:40;22.00;99.90
20985;DHT22;10651;47.552;7.606;2022-08-20T09:21:06;22.30;99.90
20985;DHT22;10651;47.552;7.606;2022-08-20T09:23:32;22.70;99.90
20985;DHT22;10651;47.552;7.606;2022-08-20T09:25:58;23.30;99.90
20985;DHT22;10651;47.552;7.606;2022-08-20T09:28:24;23.00;99.90
20985;DHT22;10651;47.552;7.606;2022-08-20T09:30:50;22.80;99.90
20985;DHT22;10651;47.552;7.606;2022-08-20T09:33:16;22.50;99.90
20985;DHT22;10651;47.552;7.606;2022-08-20T09:35:41;22.40;99.90
20985;DHT22;10651;47.552;7.606;2022-08-20T09:38:09;22.20;99.90
20985;DHT22;10651;47.552;7.606;2022-08-20T09:40:34;22.10;99.90
20985;DHT22;10651;47.552;7.606;2022-08-20T09:43:00;22.20;99.90
20985;DHT22;10651;47.552;7.606;2022-08-20T09:45:27;22.10;99.90
20985;DHT22;10651;47.552;7.606;2022-08-20T09:47:53;22.10;99.90
20985;DHT22;10651;47.552;7.606;2022-08-20T09:50:19;22.30;99.90
20985;DHT22;10651;47.552;7.606;2022-08-20T09:52:47;22.60;99.90
20985;DHT22;10651;47.552;7.606;2022-08-20T09:55:21;22.80;99.90
20985;DHT22;10651;47.552;7.606;2022-08-20T09:57:49;23.10;99.90
20985;DHT22;10651;47.552;7.606;2022-08-20T10:00:16;23.20;99.90
20985;DHT22;10651;47.552;7.606;2022-08-20T10:02:42;23.10;99.90
20985;DHT22;10651;47.552;7.606;2022-08-20T10:05:08;22.80;99.90
20985;DHT22;10651;47.552;7.606;2022-08-20T10:07:36;22.60;99.90
20985;DHT22;10651;47.552;7.606;2022-08-20T10:10:12;22.30;99.90
20985;DHT22;10651;47.552;7.606;2022-08-20T10:12:38;22.00;99.90
20985;DHT22;10651;47.552;7.606;2022-08-20T10:15:06;21.70;99.90
20985;DHT22;10651;47.552;7.606;2022-08-20T10:17:41;21.50;99.90
20985;DHT22;10651;47.552;7.606;2022-08-20T10:20:09;21.40;99.90
20985;DHT22;10651;47.552;7.606;2022-08-20T10:22:43;21.40;99.90
20985;DHT22;10651;47.552;7.606;2022-08-20T10:25:09;21.50;99.90
20985;DHT22;10651;47.552;7.606;2022-08-20T10:27:36;21.60;99.90
20985;DHT22;10651;47.552;7.606;2022-08-20T10:30:03;21.80;99.90
20985;DHT22;10651;47.552;7.606;2022-08-20T10:32:30;21.90;99.90
20985;DHT22;10651;47.552;7.606;2022-08-20T10:34:55;22.00;99.90
20985;DHT22;10651;47.552;7.606;2022-08-20T10:37:23;22.50;99.90
20985;DHT22;10651;47.552;7.606;2022-08-20T10:39:49;22.90;99.90
20985;DHT22;10651;47.552;7.606;2022-08-20T10:42:15;23.40;99.90
20985;DHT22;10651;47.552;7.606;2022-08-20T10:44:41;23.10;99.90
20985;DHT22;10651;47.552;7.606;2022-08-20T10:47:23;23.30;99.90
20985;DHT22;10651;47.552;7.606;2022-08-20T10:49:51;23.60;99.90
20985;DHT22;10651;47.552;7.606;2022-08-20T10:52:18;24.10;99.90
20985;DHT22;10651;47.552;7.606;2022-08-20T10:54:44;24.30;99.90
20985;DHT22;10651;47.552;7.606;2022-08-20T10:57:16;24.60;99.90
20985;DHT22;10651;47.552;7.606;2022-08-20T10:59:44;24.80;99.90
20985;DHT22;10651;47.552;7.606;2022-08-20T11:02:10;25.00;99.90
20985;DHT22;10651;47.552;7.606;2022-08-20T11:04:35;25.00;99.90
20985;DHT22;10651;47.552;7.606;2022-08-20T11:07:15;24.30;99.90
20985;DHT22;10651;47.552;7.606;2022-08-20T11:09:42;24.40;99.90
20985;DHT22;10651;47.552;7.606;2022-08-20T11:12:09;24.40;99.90
20985;DHT22;10651;47.552;7.606;2022-08-20T11:14:35;24.40;99.90
20985;DHT22;10651;47.552;7.606;2022-08-20T11:17:02;24.80;99.90
20985;DHT22;10651;47.552;7.606;2022-08-20T11:19:28;24.90;99.90
20985;DHT22;10651;47.552;7.606;2022-08-20T11:21:54;24.50;99.90
20985;DHT22;10651;47.552;7.606;2022-08-20T11:24:20;24.20;99.90
20985;DHT22;10651;47.552;7.606;2022-08-20T11:26:47;24.00;99.90
20985;DHT22;10651;47.552;7.606;2022-08-20T11:29:14;23.70;99.90
20985;DHT22;10651;47.552;7.606;2022-08-20T11:31:39;23.90;99.90
20985;DHT22;10651;47.552;7.606;2022-08-20T11:34:05;24.20;99.90
20985;DHT22;10651;47.552;7.606;2022-08-20T11:36:31;24.50;99.90
20985;DHT22;10651;47.552;7.606;2022-08-20T11:38:57;24.70;99.90
20985;DHT22;10651;47.552;7.606;2022-08-20T11:41:23;24.70;99.90
20985;DHT22;10651;47.552;7.606;2022-08-20T11:43:48;25.10;99.90
20985;DHT22;10651;47.552;7.606;2022-08-20T11:46:14;25.80;99.90
20985;DHT22;10651;47.552;7.606;2022-08-20T11:48:40;25.90;99.90
20985;DHT22;10651;47.552;7.606;2022-08-20T11:51:05;25.80;99.90
20985;DHT22;10651;47.552;7.606;2022-08-20T11:53:31;26.00;99.90
20985;DHT22;10651;47.552;7.606;2022-08-20T11:55:57;26.30;99.90
20985;DHT22;10651;47.552;7.606;2022-08-20T11:58:23;26.50;99.90
20985;DHT22;10651;47.552;7.606;2022-08-20T12:00:49;26.60;99.90
20985;DHT22;10651;47.552;7.606;2022-08-20T12:03:14;26.30;99.90
20985;DHT22;10651;47.552;7.606;2022-08-20T12:05:42;25.80;99.90
20985;DHT22;10651;47.552;7.606;2022-08-20T12:08:09;25.30;99.90
20985;DHT22;10651;47.552;7.606;2022-08-20T12:10:36;24.80;99.90
20985;DHT22;10651;47.552;7.606;2022-08-20T12:13:03;24.70;99.90
20985;DHT22;10651;47.552;7.606;2022-08-20T12:15:29;24.70;99.90
20985;DHT22;10651;47.552;7.606;2022-08-20T12:17:54;24.70;99.90
20985;DHT22;10651;47.552;7.606;2022-08-20T12:20:21;24.60;99.90
20985;DHT22;10651;47.552;7.606;2022-08-20T12:22:47;25.20;99.90
20985;DHT22;10651;47.552;7.606;2022-08-20T12:25:13;25.90;99.90
20985;DHT22;10651;47.552;7.606;2022-08-20T12:27:39;26.40;99.90
20985;DHT22;10651;47.552;7.606;2022-08-20T12:30:12;26.50;99.90
20985;DHT22;10651;47.552;7.606;2022-08-20T12:32:39;26.50;99.90
20985;DHT22;10651;47.552;7.606;2022-08-20T12:35:06;26.40;99.90
20985;DHT22;10651;47.552;7.606;2022-08-20T12:37:32;26.10;99.90
20985;DHT22;10651;47.552;7.606;2022-08-20T12:40:00;26.20;99.90
20985;DHT22;10651;47.552;7.606;2022-08-20T12:42:27;26.20;99.90
20985;DHT22;10651;47.552;7.606;2022-08-20T12:44:55;26.30;99.90
20985;DHT22;10651;47.552;7.606;2022-08-20T12:47:27;26.40;99.90
20985;DHT22;10651;47.552;7.606;2022-08-20T12:49:59;26.40;99.90
20985;DHT22;10651;47.552;7.606;2022-08-20T12:52:27;26.40;99.90
20985;DHT22;10651;47.552;7.606;2022-08-20T12:54:54;26.60;99.90
20985;DHT22;10651;47.552;7.606;2022-08-20T12:57:36;26.60;99.90
20985;DHT22;10651;47.552;7.606;2022-08-20T13:00:08;26.60;99.90
20985;DHT22;10651;47.552;7.606;2022-08-20T13:02:35;26.80;99.90
20985;DHT22;10651;47.552;7.606;2022-08-20T13:05:02;26.80;99.90
20985;DHT22;10651;47.552;7.606;2022-08-20T13:07:27;26.80;99.90
20985;DHT22;10651;47.552;7.606;2022-08-20T13:09:53;26.80;99.90
20985;DHT22;10651;47.552;7.606;2022-08-20T13:12:19;27.00;99.90
20985;DHT22;10651;47.552;7.606;2022-08-20T13:14:45;27.10;99.90
20985;DHT22;10651;47.552;7.606;2022-08-20T13:17:10;26.90;99.90
20985;DHT22;10651;47.552;7.606;2022-08-20T13:19:38;26.50;99.90
20985;DHT22;10651;47.552;7.606;2022-08-20T13:22:04;26.90;99.90
20985;DHT22;10651;47.552;7.606;2022-08-20T13:24:30;26.90;99.90
20985;DHT22;10651;47.552;7.606;2022-08-20T13:27:07;26.60;99.90
20985;DHT22;10651;47.552;7.606;2022-08-20T13:29:34;26.30;99.90
20985;DHT22;10651;47.552;7.606;2022-08-20T13:32:00;26.10;99.90
20985;DHT22;10651;47.552;7.606;2022-08-20T13:34:26;26.00;99.90
20985;DHT22;10651;47.552;7.606;2022-08-20T13:36:52;25.60;99.90
20985;DHT22;10651;47.552;7.606;2022-08-20T13:39:20;25.50;99.90
20985;DHT22;10651;47.552;7.606;2022-08-20T13:41:46;25.40;99.90
20985;DHT22;10651;47.552;7.606;2022-08-20T13:44:11;25.30;99.90
20985;DHT22;10651;47.552;7.606;2022-08-20T13:46:37;25.20;99.90
20985;DHT22;10651;47.552;7.606;2022-08-20T13:49:03;25.10;99.90
20985;DHT22;10651;47.552;7.606;2022-08-20T13:51:28;27.00;99.90
20985;DHT22;10651;47.552;7.606;2022-08-20T13:53:54;26.60;99.90
20985;DHT22;10651;47.552;7.606;2022-08-20T13:56:20;26.00;99.90
20985;DHT22;10651;47.552;7.606;2022-08-20T13:58:45;26.00;99.90
20985;DHT22;10651;47.552;7.606;2022-08-20T14:01:11;25.90;99.90
20985;DHT22;10651;47.552;7.606;2022-08-20T14:03:37;25.60;99.90
20985;DHT22;10651;47.552;7.606;2022-08-20T14:06:03;25.10;99.90
20985;DHT22;10651;47.552;7.606;2022-08-20T14:08:29;24.80;99.90
20985;DHT22;10651;47.552;7.606;2022-08-20T14:10:54;24.80;99.90
20985;DHT22;10651;47.552;7.606;2022-08-20T14:13:22;24.40;99.90
20985;DHT22;10651;47.552;7.606;2022-08-20T14:15:48;24.40;99.90
20985;DHT22;10651;47.552;7.606;2022-08-20T14:18:14;24.50;99.90
20985;DHT22;10651;47.552;7.606;2022-08-20T14:20:41;24.20;99.90
20985;DHT22;10651;47.552;7.606;2022-08-20T14:23:07;24.70;99.90
20985;DHT22;10651;47.552;7.606;2022-08-20T14:25:34;25.10;99.90
20985;DHT22;10651;47.552;7.606;2022-08-20T14:28:09;25.40;99.90
20985;DHT22;10651;47.552;7.606;2022-08-20T14:30:35;25.30;99.90
20985;DHT22;10651;47.552;7.606;2022-08-20T14:33:01;25.00;99.90
20985;DHT22;10651;47.552;7.606;2022-08-20T14:35:26;24.80;99.90
20985;DHT22;10651;47.552;7.606;2022-08-20T14:37:53;24.60;99.90
20985;DHT22;10651;47.552;7.606;2022-08-20T14:40:21;24.40;99.90
20985;DHT22;10651;47.552;7.606;2022-08-20T14:42:48;24.40;99.90
20985;DHT22;10651;47.552;7.606;2022-08-20T14:45:15;24.30;99.90
20985;DHT22;10651;47.552;7.606;2022-08-20T14:47:44;24.50;99.90
20985;DHT22;10651;47.552;7.606;2022-08-20T14:50:16;24.50;99.90
20985;DHT22;10651;47.552;7.606;2022-08-20T14:52:42;25.00;99.90
20985;DHT22;10651;47.552;7.606;2022-08-20T14:55:12;25.50;99.90
20985;DHT22;10651;47.552;7.606;2022-08-20T14:57:38;25.40;99.90
20985;DHT22;10651;47.552;7.606;2022-08-20T15:00:06;25.40;99.90
20985;DHT22;10651;47.552;7.606;2022-08-20T15:02:34;25.60;99.90
20985;DHT22;10651;47.552;7.606;2022-08-20T15:05:00;26.00;99.90
20985;DHT22;10651;47.552;7.606;2022-08-20T15:07:31;26.10;99.90
20985;DHT22;10651;47.552;7.606;2022-08-20T15:09:58;26.20;99.90
20985;DHT22;10651;47.552;7.606;2022-08-20T15:12:29;26.30;99.90
20985;DHT22;10651;47.552;7.606;2022-08-20T15:14:55;26.50;99.90
20985;DHT22;10651;47.552;7.606;2022-08-20T15:17:24;26.20;99.90
20985;DHT22;10651;47.552;7.606;2022-08-20T15:19:50;25.60;99.90
20985;DHT22;10651;47.552;7.606;2022-08-20T15:22:17;25.90;99.90
20985;DHT22;10651;47.552;7.606;2022-08-20T15:24:43;26.20;99.90
20985;DHT22;10651;47.552;7.606;2022-08-20T15:29:39;26.30;99.90
20985;DHT22;10651;47.552;7.606;2022-08-20T15:32:04;26.40;99.90
20985;DHT22;10651;47.552;7.606;2022-08-20T15:34:31;26.50;99.90
20985;DHT22;10651;47.552;7.606;2022-08-20T15:36:57;26.50;99.90
20985;DHT22;10651;47.552;7.606;2022-08-20T15:39:22;26.60;99.90
20985;DHT22;10651;47.552;7.606;2022-08-20T15:41:48;26.40;99.90
20985;DHT22;10651;47.552;7.606;2022-08-20T15:44:13;26.40;99.90
20985;DHT22;10651;47.552;7.606;2022-08-20T15:46:39;26.40;99.90
20985;DHT22;10651;47.552;7.606;2022-08-20T15:49:10;26.60;99.90
20985;DHT22;10651;47.552;7.606;2022-08-20T15:51:41;26.40;99.90
20985;DHT22;10651;47.552;7.606;2022-08-20T15:54:22;26.00;99.90
20985;DHT22;10651;47.552;7.606;2022-08-20T16:05:03;25.80;99.90